createdAt,value
2018-04-22T00:01:57.619Z,13.20
2018-04-22T00:04:25.019Z,12.53
2018-04-22T00:06:52.508Z,14.03
2018-04-22T00:09:19.987Z,13.23
2018-04-22T00:11:47.385Z,13.47
2018-04-22T00:14:14.788Z,13.27
2018-04-22T00:16:42.201Z,13.82
2018-04-22T00:19:10.016Z,12.90
2018-04-22T00:21:37.417Z,13.23
2018-04-22T00:24:04.813Z,11.43
2018-04-22T00:26:32.323Z,14.13
2018-04-22T00:28:59.728Z,15.30
2018-04-22T00:31:27.885Z,14.93
2018-04-22T00:33:55.377Z,14.50
2018-04-22T00:36:22.791Z,14.57
2018-04-22T00:38:50.201Z,14.53
2018-04-22T00:41:17.615Z,16.37
2018-04-22T00:43:45.345Z,14.33
2018-04-22T00:46:12.728Z,13.40
2018-04-22T00:48:40.136Z,12.30
2018-04-22T00:51:07.516Z,14.70
2018-04-22T00:56:37.935Z,14.13
2018-04-22T00:59:05.342Z,15.33
2018-04-22T01:01:32.730Z,14.87
2018-04-22T01:04:00.134Z,14.02
2018-04-22T01:06:27.520Z,14.17
2018-04-22T01:08:54.921Z,15.00
2018-04-22T01:11:22.407Z,15.95
2018-04-22T01:13:49.799Z,15.53
2018-04-22T01:16:17.204Z,15.33
2018-04-22T01:18:44.680Z,16.58
2018-04-22T01:21:12.153Z,17.80
2018-04-22T01:23:39.544Z,16.73
2018-04-22T01:26:06.951Z,17.47
2018-04-22T01:28:34.349Z,17.83
2018-04-22T01:31:01.749Z,18.87
2018-04-22T01:33:29.151Z,16.95
2018-04-22T01:35:56.554Z,16.40
2018-04-22T01:38:24.841Z,15.30
2018-04-22T01:40:52.243Z,15.53
2018-04-22T01:43:19.643Z,15.43
2018-04-22T01:45:47.048Z,15.50
2018-04-22T01:48:14.453Z,16.93
2018-04-22T01:50:41.844Z,15.70
2018-04-22T01:53:09.724Z,15.00
2018-04-22T01:55:37.131Z,14.50
2018-04-22T01:58:04.536Z,16.03
2018-04-22T02:00:31.946Z,15.80
2018-04-22T02:02:59.352Z,15.70
2018-04-22T02:05:26.760Z,15.97
2018-04-22T02:07:54.183Z,16.97
2018-04-22T02:10:21.589Z,15.95
2018-04-22T02:12:49.897Z,15.73
2018-04-22T02:15:17.292Z,16.93
2018-04-22T02:17:44.697Z,16.80
2018-04-22T02:20:12.135Z,15.50
2018-04-22T02:22:39.539Z,15.93
2018-04-22T02:25:06.943Z,17.43
2018-04-22T02:27:34.347Z,17.07
2018-04-22T02:30:03.056Z,17.73
2018-04-22T02:32:30.454Z,18.12
2018-04-22T02:34:57.852Z,17.85
2018-04-22T02:37:25.272Z,17.77
2018-04-22T02:39:52.655Z,18.40
2018-04-22T02:42:20.068Z,18.60
2018-04-22T02:44:47.466Z,17.50
2018-04-22T02:47:14.872Z,17.50
2018-04-22T02:49:42.260Z,16.90
2018-04-22T02:52:09.664Z,17.83
2018-04-22T02:54:37.105Z,20.07
2018-04-22T02:57:05.277Z,17.48
2018-04-22T02:59:32.675Z,19.55
2018-04-22T03:02:00.070Z,20.03
2018-04-22T03:04:27.597Z,20.20
2018-04-22T03:06:54.991Z,18.92
2018-04-22T03:09:22.385Z,18.20
2018-04-22T03:11:50.006Z,17.57
2018-04-22T03:14:17.383Z,19.12
2018-04-22T03:16:44.781Z,20.10
2018-04-22T03:19:12.181Z,18.00
2018-04-22T03:21:39.719Z,19.40
2018-04-22T03:24:07.114Z,19.67
2018-04-22T03:26:34.940Z,20.48
2018-04-22T03:29:02.351Z,19.00
2018-04-22T03:31:29.744Z,20.27
2018-04-22T03:33:57.189Z,19.58
2018-04-22T03:36:24.586Z,20.50
2018-04-22T03:38:51.976Z,19.70
2018-04-22T03:41:19.551Z,20.98
2018-04-22T03:43:46.966Z,19.37
2018-04-22T03:46:14.353Z,19.43
2018-04-22T03:48:41.884Z,17.67
2018-04-22T03:51:09.268Z,20.10
2018-04-22T03:53:36.673Z,19.87
2018-04-22T03:56:04.077Z,21.30
2018-04-22T03:58:31.613Z,19.93
2018-04-22T04:00:59.006Z,21.80
2018-04-22T04:03:26.418Z,20.50
2018-04-22T04:05:53.826Z,22.37
2018-04-22T04:08:21.464Z,21.70
2018-04-22T04:10:48.867Z,22.60
2018-04-22T04:13:16.631Z,20.37
2018-04-22T04:15:44.171Z,19.50
2018-04-22T04:21:36.365Z,25.83
2018-04-22T04:27:24.892Z,28.92
2018-04-22T04:29:52.415Z,24.30
2018-04-22T04:32:19.802Z,25.63
2018-04-22T04:34:47.204Z,21.10
2018-04-22T04:37:14.600Z,26.17
2018-04-22T04:39:42.245Z,25.40
2018-04-22T04:42:09.632Z,27.53
2018-04-22T04:44:37.048Z,26.90
2018-04-22T04:47:04.483Z,27.70
2018-04-22T04:49:31.891Z,27.37
2018-04-22T04:51:59.295Z,25.63
2018-04-22T04:54:26.750Z,27.27
2018-04-22T04:56:54.262Z,26.92
2018-04-22T04:59:21.676Z,27.30
2018-04-22T05:01:49.068Z,25.60
2018-04-22T05:04:16.475Z,26.48
2018-04-22T05:06:44.028Z,25.58
2018-04-22T05:09:11.437Z,23.73
2018-04-22T05:11:38.831Z,25.87
2018-04-22T05:14:06.269Z,26.23
2018-04-22T05:16:33.736Z,26.30
2018-04-22T05:19:01.151Z,25.43
2018-04-22T05:21:28.533Z,25.80
2018-04-22T05:23:56.167Z,27.10
2018-04-22T05:26:24.009Z,28.13
2018-04-22T05:28:51.420Z,28.73
2018-04-22T05:31:18.876Z,26.63
2018-04-22T05:33:46.268Z,27.03
2018-04-22T05:36:13.672Z,25.97
2018-04-22T05:38:41.270Z,26.20
2018-04-22T05:41:08.852Z,25.20
2018-04-22T05:43:36.241Z,26.20
2018-04-22T05:46:03.659Z,25.90
2018-04-22T05:48:31.107Z,25.60
2018-04-22T05:50:58.564Z,22.40
2018-04-22T05:53:25.952Z,22.63
2018-04-22T05:55:53.388Z,22.77
2018-04-22T05:58:21.054Z,19.10
2018-04-22T06:00:48.448Z,18.80
2018-04-22T06:03:15.840Z,22.43
2018-04-22T06:05:43.257Z,21.07
2018-04-22T06:08:11.039Z,20.70
2018-04-22T06:10:38.445Z,21.87
2018-04-22T06:13:05.832Z,22.48
2018-04-22T06:15:33.386Z,21.30
2018-04-22T06:18:00.937Z,21.13
2018-04-22T06:20:28.641Z,21.80
2018-04-22T06:22:56.032Z,21.53
2018-04-22T06:25:23.467Z,22.00
2018-04-22T06:27:50.864Z,22.10
2018-04-22T06:30:18.275Z,21.55
2018-04-22T06:32:45.671Z,22.70
2018-04-22T06:35:13.868Z,21.65
2018-04-22T06:37:41.281Z,22.77
2018-04-22T06:40:08.688Z,23.77
2018-04-22T06:42:36.448Z,21.40
2018-04-22T06:45:03.840Z,22.98
2018-04-22T06:47:31.248Z,20.47
2018-04-22T06:49:58.708Z,20.80
2018-04-22T06:52:26.181Z,20.02
2018-04-22T06:54:53.635Z,18.77
2018-04-22T06:57:21.069Z,20.73
2018-04-22T06:59:48.489Z,19.33
2018-04-22T07:02:16.672Z,19.80
2018-04-22T07:04:44.545Z,18.52
2018-04-22T07:07:12.800Z,18.40
2018-04-22T07:09:40.193Z,22.03
2018-04-22T07:12:07.588Z,18.83
2018-04-22T07:14:35.373Z,19.40
2018-04-22T07:17:02.899Z,20.33
2018-04-22T07:19:30.295Z,18.42
2018-04-22T07:21:58.408Z,15.37
2018-04-22T07:24:25.803Z,15.57
2018-04-22T07:26:54.222Z,17.05
2018-04-22T07:29:21.688Z,14.20
2018-04-22T07:31:49.886Z,13.67
2018-04-22T07:34:18.180Z,15.10
2018-04-22T07:36:45.579Z,15.10
2018-04-22T07:39:13.111Z,15.73
2018-04-22T07:41:40.851Z,12.20
2018-04-22T07:44:10.707Z,13.70
2018-04-22T07:46:38.134Z,12.20
2018-04-22T07:49:05.521Z,17.33
2018-04-22T07:51:32.922Z,19.27
2018-04-22T07:54:00.331Z,18.30
2018-04-22T07:56:27.724Z,13.25
2018-04-22T07:58:55.398Z,16.77
2018-04-22T08:01:23.164Z,16.75
2018-04-22T08:03:53.189Z,15.30
2018-04-22T08:06:25.738Z,15.73
2018-04-22T08:08:53.220Z,16.60
2018-04-22T08:11:20.623Z,14.20
2018-04-22T08:13:49.109Z,15.00
2018-04-22T08:16:16.796Z,15.20
2018-04-22T08:18:44.196Z,13.87
2018-04-22T08:21:11.590Z,13.17
2018-04-22T08:23:39.092Z,12.23
2018-04-22T08:26:06.439Z,13.03
2018-04-22T08:28:33.852Z,12.32
2018-04-22T08:31:04.135Z,12.27
2018-04-22T08:33:33.776Z,13.47
2018-04-22T08:36:02.342Z,13.50
2018-04-22T08:38:31.645Z,10.33
2018-04-22T08:41:02.046Z,11.35
2018-04-22T08:43:31.287Z,11.47
2018-04-22T08:45:59.193Z,13.40
2018-04-22T08:48:27.576Z,9.27
2018-04-22T08:50:57.673Z,10.93
2018-04-22T08:53:26.297Z,10.70
2018-04-22T08:55:56.527Z,11.13
2018-04-22T09:15:42.118Z,11.70
2018-04-22T09:18:11.988Z,9.07
2018-04-22T09:20:41.036Z,9.63
2018-04-22T09:23:10.647Z,9.13
2018-04-22T09:25:40.130Z,8.63
2018-04-22T09:28:09.359Z,9.10
2018-04-22T09:30:37.835Z,7.87
2018-04-22T09:33:08.049Z,8.10
2018-04-22T09:35:36.949Z,8.80
2018-04-22T09:38:07.074Z,9.77
2018-04-22T09:40:36.236Z,9.77
2018-04-22T09:43:18.322Z,8.17
2018-04-22T09:49:08.864Z,6.70
2018-04-22T09:51:38.199Z,6.65
2018-04-22T09:54:07.611Z,7.30
2018-04-22T09:56:36.988Z,8.20
2018-04-22T09:59:06.501Z,7.30
2018-04-22T10:01:37.716Z,7.50
2018-04-22T10:04:10.438Z,7.80
2018-04-22T10:06:39.262Z,7.80
2018-04-22T10:09:09.192Z,6.93
2018-04-22T10:11:38.885Z,7.07
2018-04-22T10:14:10.388Z,6.55
2018-04-22T10:16:39.917Z,6.30
2018-04-22T10:19:14.869Z,6.87
2018-04-22T10:21:46.233Z,6.37
2018-04-22T10:24:15.190Z,6.20
2018-04-22T10:26:45.992Z,6.50
2018-04-22T10:29:15.998Z,5.60
2018-04-22T10:31:45.893Z,5.90
2018-04-22T10:34:13.275Z,6.18
2018-04-22T10:36:40.693Z,6.20
2018-04-22T10:39:08.081Z,5.53
2018-04-22T10:41:35.491Z,5.43
2018-04-22T10:44:02.880Z,5.73
2018-04-22T10:46:30.918Z,6.13
2018-04-22T10:48:58.390Z,5.47
2018-04-22T10:51:26.691Z,5.70
2018-04-22T10:53:54.248Z,5.53
2018-04-22T10:56:21.633Z,5.30
2018-04-22T10:58:49.067Z,5.00
2018-04-22T11:01:19.516Z,5.93
2018-04-22T11:03:46.939Z,4.40
2018-04-22T11:06:15.125Z,4.93
2018-04-22T11:08:42.500Z,4.80
2018-04-22T11:11:09.897Z,4.80
2018-04-22T11:13:37.403Z,3.77
2018-04-22T11:16:04.780Z,4.60
2018-04-22T11:18:32.167Z,3.47
2018-04-22T11:20:59.568Z,3.70
2018-04-22T11:23:27.077Z,3.50
2018-04-22T11:25:54.451Z,4.27
2018-04-22T15:01:32.900Z,3.17
2018-04-22T15:04:01.214Z,3.07
2018-04-22T15:06:29.587Z,3.37
2018-04-22T15:08:56.987Z,3.73
2018-04-22T15:11:24.571Z,2.60
2018-04-22T15:13:51.951Z,2.93
2018-04-22T15:16:19.350Z,3.13
2018-04-22T15:18:46.745Z,2.70
2018-04-22T15:21:14.133Z,2.70
2018-04-22T15:23:41.657Z,3.13
2018-04-22T15:26:09.079Z,3.10
2018-04-22T15:28:36.469Z,2.67
2018-04-22T15:31:04.088Z,3.50
2018-04-22T15:33:33.500Z,4.60
2018-04-22T15:36:01.245Z,3.17
2018-04-22T15:38:28.642Z,3.30
2018-04-22T15:40:56.064Z,3.40
2018-04-22T15:43:23.464Z,3.03
2018-04-22T15:45:50.849Z,3.45
2018-04-22T15:48:18.825Z,2.80
2018-04-22T15:50:46.208Z,3.62
2018-04-22T15:53:13.613Z,3.30
2018-04-22T15:55:41.432Z,3.37
2018-04-22T15:58:08.855Z,2.90
2018-04-22T16:00:36.221Z,3.20
2018-04-22T16:03:03.611Z,3.90
2018-04-22T16:05:31.932Z,4.10
2018-04-22T16:07:59.330Z,3.77
2018-04-22T16:10:26.732Z,3.40
2018-04-22T16:12:54.560Z,3.80
2018-04-22T16:15:22.139Z,3.80
2018-04-22T16:17:49.527Z,2.97
2018-04-22T16:20:16.917Z,3.57
2018-04-22T16:22:44.331Z,3.50
2018-04-22T16:25:11.734Z,3.00
2018-04-22T16:27:39.132Z,3.17
2018-04-22T16:30:06.898Z,16.73
2018-04-22T16:32:34.302Z,10.53
2018-04-22T16:35:01.697Z,3.90
2018-04-22T16:37:29.089Z,3.10
2018-04-22T16:39:56.540Z,3.97
2018-04-22T16:42:24.136Z,4.57
2018-04-22T16:44:51.565Z,4.00
2018-04-22T16:47:19.278Z,3.13
2018-04-22T16:49:47.668Z,2.87
2018-04-22T16:52:15.067Z,3.27
2018-04-22T16:54:42.467Z,2.60
2018-04-22T16:57:11.311Z,2.73
2018-04-22T16:59:38.718Z,3.60
2018-04-22T17:02:06.118Z,2.85
2018-04-22T17:04:34.324Z,3.15
2018-04-22T17:07:01.720Z,3.00
2018-04-22T17:09:29.115Z,3.30
2018-04-22T17:11:56.492Z,3.93
2018-04-22T17:14:23.896Z,4.40
2018-04-22T17:16:51.289Z,3.60
2018-04-22T17:19:18.685Z,3.20
2018-04-22T17:21:46.068Z,4.07
2018-04-22T17:24:13.490Z,3.40
2018-04-22T17:26:41.089Z,3.28
2018-04-22T17:29:08.853Z,3.53
2018-04-22T17:31:36.341Z,3.00
2018-04-22T17:34:03.767Z,4.23
2018-04-22T17:36:31.152Z,3.27
2018-04-22T17:38:58.618Z,3.50
2018-04-22T17:41:26.014Z,3.43
2018-04-22T17:43:53.439Z,2.97
2018-04-22T17:46:20.850Z,3.50
2018-04-22T17:48:48.243Z,3.07
2018-04-22T17:51:16.600Z,2.90
2018-04-22T17:53:44.065Z,3.90
2018-04-22T17:56:12.124Z,4.12
2018-04-22T17:58:39.508Z,2.80
2018-04-22T18:01:06.905Z,3.23
2018-04-22T18:03:34.514Z,3.53
2018-04-22T18:06:01.903Z,2.87
2018-04-22T18:08:29.295Z,3.00
2018-04-22T18:10:57.321Z,3.07
2018-04-22T18:13:24.722Z,3.28
2018-04-22T18:15:52.115Z,3.40
2018-04-22T18:18:19.496Z,3.03
2018-04-22T18:20:47.332Z,2.43
2018-04-22T18:23:15.437Z,3.17
2018-04-22T18:25:42.844Z,2.40
2018-04-22T18:28:10.219Z,2.50
2018-04-22T18:30:38.103Z,2.45
2018-04-22T18:33:05.497Z,2.20
2018-04-22T18:35:33.617Z,2.27
2018-04-22T18:38:01.001Z,2.20
2018-04-22T18:40:28.400Z,3.08
2018-04-22T18:42:55.789Z,2.80
2018-04-22T18:45:23.473Z,2.62
2018-04-22T18:47:50.877Z,2.60
2018-04-22T18:50:18.272Z,3.10
2018-04-22T18:52:45.663Z,2.90
2018-04-22T18:55:13.074Z,2.65
2018-04-22T18:57:40.465Z,2.10
2018-04-22T19:00:07.853Z,2.57
2018-04-22T19:02:35.285Z,2.47
2018-04-22T19:05:02.634Z,2.57
2018-04-22T19:07:30.030Z,2.37
2018-04-22T19:09:57.427Z,3.07
2018-04-22T19:12:24.816Z,2.57
2018-04-22T19:14:52.224Z,2.23
2018-04-22T19:17:19.666Z,2.23
2018-04-22T19:19:47.003Z,2.40
2018-04-22T19:22:14.401Z,2.90
2018-04-22T19:24:41.781Z,2.53
2018-04-22T19:27:09.183Z,2.70
2018-04-22T19:29:36.586Z,3.57
2018-04-22T19:32:03.970Z,2.67
2018-04-22T19:34:31.407Z,2.83
2018-04-22T19:36:58.791Z,2.20
2018-04-22T19:39:26.181Z,2.33
2018-04-22T19:41:53.584Z,3.30
2018-04-22T19:44:20.987Z,2.20
2018-04-22T19:46:48.369Z,2.60
2018-04-22T19:49:15.752Z,2.07
2018-04-22T19:51:43.158Z,2.23
2018-04-22T19:54:10.533Z,2.30
2018-04-22T19:56:38.061Z,2.30
2018-04-22T19:59:05.442Z,2.60
2018-04-22T20:01:32.911Z,2.30
2018-04-22T20:04:00.283Z,2.57
2018-04-22T20:06:27.681Z,3.07
2018-04-22T20:08:55.363Z,2.50
2018-04-22T20:11:22.747Z,2.72
2018-04-22T20:13:50.864Z,2.70
2018-04-22T20:16:18.263Z,2.28
2018-04-22T20:18:45.653Z,2.70
2018-04-22T20:21:13.482Z,2.65
2018-04-22T20:23:40.855Z,2.97
2018-04-22T20:26:08.249Z,3.30
2018-04-22T20:28:35.864Z,3.70
2018-04-22T20:31:03.236Z,3.07
2018-04-22T20:33:30.936Z,3.30
2018-04-22T20:35:58.323Z,3.07
2018-04-22T20:38:25.719Z,3.17
2018-04-22T20:40:53.176Z,3.00
2018-04-22T20:43:20.572Z,2.53
2018-04-22T20:45:48.156Z,3.62
2018-04-22T20:48:15.547Z,2.90
2018-04-22T20:50:42.928Z,3.40
2018-04-22T20:53:10.342Z,2.90
2018-04-22T20:55:37.716Z,2.77
2018-04-22T20:58:05.126Z,4.05
2018-04-22T21:00:32.505Z,3.10
2018-04-22T21:02:59.892Z,2.60
2018-04-22T21:05:27.278Z,3.07
2018-04-22T21:07:54.838Z,3.37
2018-04-22T21:10:22.221Z,2.45
2018-04-22T21:12:49.602Z,2.87
2018-04-22T21:15:17.728Z,2.63
2018-04-22T21:17:45.121Z,3.27
2018-04-22T21:20:13.377Z,3.37
2018-04-22T21:22:40.861Z,3.10
2018-04-22T21:25:08.280Z,4.90
2018-04-22T21:27:35.671Z,3.73
2018-04-22T21:30:03.064Z,3.67
2018-04-22T21:32:30.859Z,3.47
2018-04-22T21:34:58.259Z,2.60
2018-04-22T21:37:25.638Z,3.72
2018-04-22T21:39:53.088Z,3.63
2018-04-22T21:42:20.512Z,3.63
2018-04-22T21:44:47.904Z,4.20
2018-04-22T21:47:15.675Z,4.25
2018-04-22T21:49:43.766Z,3.53
2018-04-22T21:52:11.155Z,3.57
2018-04-22T21:54:38.557Z,3.20
2018-04-22T21:57:05.963Z,3.90
2018-04-22T22:02:38.048Z,3.50
2018-04-22T22:05:05.806Z,3.60
2018-04-22T22:07:33.502Z,4.13
2018-04-22T22:10:01.014Z,4.20
2018-04-22T22:12:28.404Z,3.80
2018-04-22T22:14:55.793Z,3.93
2018-04-22T22:17:23.176Z,4.20
2018-04-22T22:19:50.574Z,3.73
2018-04-22T22:22:17.954Z,4.37
2018-04-22T22:24:45.350Z,3.57
2018-04-22T22:27:13.008Z,3.60
2018-04-22T22:29:40.429Z,4.07
2018-04-22T22:32:07.819Z,3.03
2018-04-22T22:34:35.304Z,4.13
2018-04-22T22:37:02.695Z,3.73
2018-04-22T22:39:30.068Z,3.77
2018-04-22T22:41:57.468Z,3.60
2018-04-22T22:44:24.856Z,4.23
2018-04-22T22:46:52.418Z,3.40
2018-04-22T22:49:19.801Z,4.10
2018-04-22T22:51:48.439Z,3.67
2018-04-22T22:54:15.841Z,3.40
2018-04-22T22:56:43.246Z,3.27
2018-04-22T22:59:11.337Z,4.33
2018-04-22T23:01:38.731Z,4.70
2018-04-22T23:04:06.112Z,4.37
2018-04-22T23:06:33.527Z,3.75
2018-04-22T23:09:00.907Z,4.10
2018-04-22T23:11:28.468Z,3.00
2018-04-22T23:13:56.381Z,3.87
2018-04-22T23:16:23.805Z,3.50
2018-04-22T23:18:51.414Z,3.80
2018-04-22T23:21:18.817Z,3.67
2018-04-22T23:23:46.195Z,3.10
2018-04-22T23:26:13.599Z,4.53
2018-04-22T23:28:40.977Z,3.70
2018-04-22T23:31:08.368Z,3.90
2018-04-22T23:33:35.761Z,4.17
2018-04-22T23:36:03.224Z,4.13
2018-04-22T23:38:30.638Z,3.85
2018-04-22T23:40:58.028Z,4.27
2018-04-22T23:43:25.427Z,3.60
2018-04-22T23:45:52.906Z,3.50
2018-04-22T23:48:20.301Z,3.63
2018-04-22T23:50:47.681Z,4.40
2018-04-22T23:53:15.070Z,3.40
2018-04-22T23:55:42.503Z,4.00
2018-04-22T23:58:09.892Z,4.00
